createdAt,value
2022-12-16T00:00:52.180Z,80.97
2022-12-16T00:01:52.131Z,81.04
2022-12-16T00:02:52.159Z,81.18
2022-12-16T00:03:52.222Z,81.29
2022-12-16T00:04:52.071Z,81.60
2022-12-16T00:05:52.061Z,81.92
2022-12-16T00:06:52.052Z,81.39
2022-12-16T00:07:52.055Z,81.96
2022-12-16T00:08:52.162Z,82.17
2022-12-16T00:09:52.019Z,83.01
2022-12-16T00:10:52.008Z,83.23
2022-12-16T00:11:52.001Z,82.06
2022-12-16T00:12:51.995Z,81.96
2022-12-16T00:13:52.112Z,81.99
2022-12-16T00:14:52.044Z,81.89
2022-12-16T00:15:52.053Z,81.57
2022-12-16T00:16:52.064Z,81.68
2022-12-16T00:17:51.940Z,82.24
2022-12-16T00:18:52.151Z,82.14
2022-12-16T00:19:51.920Z,83.30
2022-12-16T00:20:51.907Z,83.09
2022-12-16T00:21:51.900Z,83.05
2022-12-16T00:22:51.886Z,83.37
2022-12-16T00:23:51.891Z,83.79
2022-12-16T00:24:51.866Z,83.69
2022-12-16T00:25:51.970Z,83.69
2022-12-16T00:26:51.847Z,83.72
2022-12-16T00:27:54.865Z,83.87
2022-12-16T00:28:52.837Z,84.92
2022-12-16T00:29:51.817Z,85.17
2022-12-16T00:30:51.957Z,85.56
2022-12-16T00:31:51.843Z,85.60
2022-12-16T00:32:51.814Z,85.91
2022-12-16T00:33:51.794Z,86.59
2022-12-16T00:34:51.765Z,86.59
2022-12-16T00:35:51.857Z,87.12
2022-12-16T00:36:51.746Z,87.37
2022-12-16T00:37:51.734Z,87.48
2022-12-16T00:38:51.736Z,87.86
2022-12-16T00:39:51.714Z,87.96
2022-12-16T00:40:52.141Z,88.28
2022-12-16T00:41:51.713Z,88.39
2022-12-16T00:42:51.684Z,88.32
2022-12-16T00:43:51.687Z,88.96
2022-12-16T00:44:51.664Z,88.53
2022-12-16T00:45:51.995Z,88.64
2022-12-16T00:46:51.661Z,88.60
2022-12-16T00:47:51.635Z,89.03
2022-12-16T00:48:51.636Z,88.71
2022-12-16T00:49:51.615Z,88.67
2022-12-16T00:50:51.944Z,88.88
2022-12-16T00:51:51.593Z,88.56
2022-12-16T00:52:51.586Z,88.13
2022-12-16T00:53:51.586Z,88.45
2022-12-16T00:54:51.562Z,88.77
2022-12-16T00:55:51.564Z,88.98
2022-12-16T00:56:51.548Z,88.45
2022-12-16T00:57:51.544Z,87.68
2022-12-16T00:58:51.533Z,87.46
2022-12-16T00:59:51.515Z,87.04
2022-12-16T01:00:51.545Z,86.26
2022-12-16T01:01:51.814Z,86.30
2022-12-16T01:02:51.681Z,86.05
2022-12-16T01:03:51.584Z,85.31
2022-12-16T01:04:51.462Z,84.57
2022-12-16T01:05:51.453Z,83.94
2022-12-16T01:06:51.442Z,83.83
2022-12-16T01:07:51.438Z,83.72
2022-12-16T01:08:51.441Z,83.40
2022-12-16T01:09:51.412Z,83.44
2022-12-16T01:10:51.399Z,83.23
2022-12-16T01:11:51.392Z,83.23
2022-12-16T01:12:51.382Z,83.34
2022-12-16T01:13:51.936Z,83.30
2022-12-16T01:14:51.362Z,83.23
2022-12-16T01:15:51.352Z,83.09
2022-12-16T01:16:51.391Z,83.09
2022-12-16T01:17:51.332Z,83.12
2022-12-16T01:18:51.350Z,83.20
2022-12-16T01:19:51.311Z,83.09
2022-12-16T01:20:51.303Z,82.56
2022-12-16T01:21:51.297Z,82.03
2022-12-16T01:22:51.279Z,81.96
2022-12-16T01:23:51.282Z,81.12
2022-12-16T01:24:51.260Z,81.15
2022-12-16T01:25:51.251Z,81.15
2022-12-16T01:26:51.240Z,81.26
2022-12-16T01:27:51.231Z,81.15
2022-12-16T01:28:51.230Z,81.26
2022-12-16T01:29:51.212Z,81.15
2022-12-16T01:30:51.200Z,81.68
2022-12-16T01:31:51.257Z,81.62
2022-12-16T01:32:51.179Z,81.90
2022-12-16T01:33:51.180Z,82.21
2022-12-16T01:34:55.173Z,82.00
2022-12-16T01:35:55.357Z,82.32
2022-12-16T01:36:51.138Z,82.32
2022-12-16T01:37:51.190Z,82.00
2022-12-16T01:38:51.132Z,82.21
2022-12-16T01:39:51.109Z,82.21
2022-12-16T01:40:51.100Z,82.46
2022-12-16T01:41:51.087Z,83.41
2022-12-16T01:42:51.076Z,83.20
2022-12-16T01:43:51.083Z,83.31
2022-12-16T01:44:51.949Z,83.62
2022-12-16T01:45:51.121Z,83.62
2022-12-16T01:46:51.044Z,83.94
2022-12-16T01:47:51.025Z,83.94
2022-12-16T01:48:51.034Z,84.05
2022-12-16T01:49:51.005Z,85.00
2022-12-16T01:50:51.017Z,84.36
2022-12-16T01:51:55.212Z,84.47
2022-12-16T01:52:50.976Z,85.00
2022-12-16T01:53:50.981Z,85.07
2022-12-16T01:54:50.956Z,85.17
2022-12-16T01:55:50.947Z,85.32
2022-12-16T01:56:50.936Z,84.50
2022-12-16T01:57:50.927Z,84.75
2022-12-16T01:58:50.924Z,84.01
2022-12-16T01:59:50.904Z,83.80
2022-12-16T02:00:50.988Z,83.59
2022-12-16T02:01:51.054Z,83.27
2022-12-16T02:02:51.094Z,83.17
2022-12-16T02:03:50.885Z,83.37
2022-12-16T02:04:50.856Z,83.27
2022-12-16T02:05:50.845Z,82.57
2022-12-16T02:06:50.851Z,82.25
2022-12-16T02:07:50.823Z,82.67
2022-12-16T02:08:50.828Z,83.09
2022-12-16T02:09:50.803Z,83.24
2022-12-16T02:10:50.795Z,83.52
2022-12-16T02:11:50.784Z,83.31
2022-12-16T02:12:50.776Z,83.31
2022-12-16T02:13:50.777Z,83.84
2022-12-16T02:14:50.753Z,83.52
2022-12-16T02:15:50.742Z,83.91
2022-12-16T02:16:50.819Z,83.84
2022-12-16T02:17:50.723Z,83.20
2022-12-16T02:18:50.724Z,83.20
2022-12-16T02:19:50.701Z,83.48
2022-12-16T02:20:50.695Z,83.06
2022-12-16T02:21:50.682Z,83.12
2022-12-16T02:22:50.697Z,83.23
2022-12-16T02:23:50.678Z,83.02
2022-12-16T02:24:50.652Z,83.23
2022-12-16T02:25:50.640Z,82.28
2022-12-16T02:26:50.632Z,82.21
2022-12-16T02:27:50.621Z,81.68
2022-12-16T02:28:50.625Z,81.79
2022-12-16T02:29:50.602Z,81.30
2022-12-16T02:30:50.697Z,81.26
2022-12-16T02:31:53.835Z,81.26
2022-12-16T02:32:50.572Z,81.37
2022-12-16T02:33:50.574Z,81.62
2022-12-16T02:34:50.556Z,82.00
2022-12-16T02:35:50.541Z,82.14
2022-12-16T02:36:50.560Z,82.25
2022-12-16T02:37:50.522Z,83.52
2022-12-16T02:38:55.893Z,82.99
2022-12-16T02:41:01.380Z,83.20
2022-12-16T02:42:01.373Z,83.77
2022-12-16T02:43:01.360Z,84.26
2022-12-16T02:44:01.363Z,84.09
2022-12-16T02:45:01.339Z,84.19
2022-12-16T02:46:01.442Z,84.19
2022-12-16T02:47:01.317Z,84.93
2022-12-16T02:48:01.311Z,84.93
2022-12-16T02:49:01.308Z,85.29
2022-12-16T02:50:01.302Z,85.04
2022-12-16T02:51:01.332Z,84.41
2022-12-16T02:52:01.268Z,85.36
2022-12-16T02:53:01.259Z,84.83
2022-12-16T02:54:01.339Z,84.61
2022-12-16T02:55:01.237Z,84.51
2022-12-16T02:56:01.226Z,84.72
2022-12-16T02:57:01.214Z,84.58
2022-12-16T02:58:01.205Z,84.79
2022-12-16T02:59:01.205Z,84.69
2022-12-16T03:00:01.184Z,85.00
2022-12-16T03:01:01.203Z,84.89
2022-12-16T03:02:01.430Z,84.05
2022-12-16T03:03:01.364Z,83.41
2022-12-16T03:04:01.154Z,83.09
2022-12-16T03:05:01.134Z,82.35
2022-12-16T03:06:01.128Z,82.07
2022-12-16T03:07:01.112Z,82.32
2022-12-16T03:08:01.104Z,82.01
2022-12-16T03:09:01.103Z,82.68
2022-12-16T03:10:01.099Z,83.17
2022-12-16T03:11:01.072Z,83.17
2022-12-16T03:12:01.063Z,83.28
2022-12-16T03:13:01.049Z,83.38
2022-12-16T03:14:01.051Z,83.81
2022-12-16T03:15:01.028Z,84.44
2022-12-16T03:16:01.023Z,84.86
2022-12-16T03:17:01.104Z,84.76
2022-12-16T03:18:01.028Z,84.86
2022-12-16T03:19:00.999Z,84.61
2022-12-16T03:20:00.980Z,84.66
2022-12-16T03:21:00.971Z,85.08
2022-12-16T03:22:00.961Z,84.86
2022-12-16T03:23:00.946Z,85.39
2022-12-16T03:24:00.977Z,85.25
2022-12-16T03:25:00.937Z,85.14
2022-12-16T03:26:00.936Z,85.14
2022-12-16T03:27:00.907Z,84.72
2022-12-16T03:28:00.899Z,84.93
2022-12-16T03:29:00.897Z,84.83
2022-12-16T03:30:00.888Z,85.04
2022-12-16T03:31:00.903Z,84.72
2022-12-16T03:32:00.858Z,84.66
2022-12-16T03:33:00.870Z,84.86
2022-12-16T03:34:00.846Z,85.18
2022-12-16T03:35:00.823Z,84.93
2022-12-16T03:36:00.816Z,84.41
2022-12-16T03:37:00.803Z,84.41
2022-12-16T03:38:00.794Z,84.41
2022-12-16T03:39:00.809Z,84.83
2022-12-16T03:40:00.776Z,84.83
2022-12-16T03:41:00.761Z,84.89
2022-12-16T03:42:00.767Z,84.36
2022-12-16T03:43:00.740Z,84.89
2022-12-16T03:44:00.748Z,84.47
2022-12-16T03:45:00.728Z,84.26
2022-12-16T03:46:00.812Z,84.05
2022-12-16T03:47:00.703Z,83.69
2022-12-16T03:48:00.696Z,83.52
2022-12-16T03:49:00.687Z,83.48
2022-12-16T03:50:00.669Z,83.59
2022-12-16T03:51:00.657Z,83.59
2022-12-16T03:52:00.649Z,83.69
2022-12-16T03:53:00.635Z,83.48
2022-12-16T03:54:00.643Z,83.27
2022-12-16T03:55:00.616Z,83.52
2022-12-16T03:56:00.608Z,83.62
2022-12-16T03:57:00.597Z,83.62
2022-12-16T03:58:00.602Z,84.26
2022-12-16T03:59:00.589Z,84.22
2022-12-16T04:00:00.567Z,84.33
2022-12-16T04:01:00.562Z,84.12
2022-12-16T04:02:00.638Z,84.12
2022-12-16T04:03:00.802Z,83.87
2022-12-16T04:04:00.579Z,83.44
2022-12-16T04:05:00.513Z,83.65
2022-12-16T04:06:00.507Z,83.27
2022-12-16T04:07:00.493Z,83.23
2022-12-16T04:08:02.294Z,83.02
2022-12-16T04:09:00.496Z,83.02
2022-12-16T04:10:00.468Z,83.02
2022-12-16T04:11:00.450Z,83.02
2022-12-16T04:12:00.444Z,83.02
2022-12-16T04:13:00.430Z,82.98
2022-12-16T04:14:00.454Z,83.09
2022-12-16T04:15:00.414Z,83.34
2022-12-16T04:16:00.537Z,83.09
2022-12-16T04:17:00.394Z,83.09
2022-12-16T04:18:00.382Z,83.20
2022-12-16T04:19:00.380Z,83.09
2022-12-16T04:20:00.360Z,83.20
2022-12-16T04:21:00.350Z,83.20
2022-12-16T04:22:00.343Z,83.20
2022-12-16T04:23:00.327Z,82.67
2022-12-16T04:24:00.329Z,82.39
2022-12-16T04:25:00.307Z,82.03
2022-12-16T04:26:00.298Z,82.35
2022-12-16T04:27:00.289Z,82.24
2022-12-16T04:28:00.277Z,82.14
2022-12-16T04:29:00.294Z,81.89
2022-12-16T04:30:00.286Z,82.03
2022-12-16T04:31:00.316Z,82.03
2022-12-16T04:32:00.252Z,82.14
2022-12-16T04:33:00.227Z,81.82
2022-12-16T04:34:00.226Z,81.82
2022-12-16T04:35:00.205Z,81.61
2022-12-16T04:36:00.194Z,81.29
2022-12-16T04:37:00.184Z,81.23
2022-12-16T04:38:00.172Z,81.08
2022-12-16T04:39:00.177Z,81.23
2022-12-16T04:40:00.167Z,81.75
2022-12-16T04:41:00.143Z,81.65
2022-12-16T04:42:00.131Z,81.75
2022-12-16T04:43:00.126Z,81.75
2022-12-16T04:44:00.121Z,81.85
2022-12-16T04:45:00.152Z,82.17
2022-12-16T04:46:00.226Z,81.75
2022-12-16T04:47:00.091Z,82.17
2022-12-16T04:48:00.080Z,81.96
2022-12-16T04:49:00.085Z,81.85
2022-12-16T04:50:00.064Z,82.28
2022-12-16T04:51:00.042Z,82.60
2022-12-16T04:52:00.031Z,83.06
2022-12-16T04:53:00.027Z,83.27
2022-12-16T04:54:00.025Z,83.62
2022-12-16T04:55:00.001Z,84.26
2022-12-16T04:56:04.120Z,84.36
2022-12-16T04:56:59.981Z,85.50
2022-12-16T04:57:59.968Z,85.71
2022-12-16T04:58:59.972Z,86.10
2022-12-16T04:59:59.960Z,85.61
2022-12-16T05:00:59.939Z,86.14
2022-12-16T05:02:00.175Z,86.35
2022-12-16T05:02:59.921Z,86.56
2022-12-16T05:04:00.090Z,86.52
2022-12-16T05:04:59.900Z,86.56
2022-12-16T05:05:59.886Z,86.77
2022-12-16T05:06:59.878Z,86.41
2022-12-16T05:07:59.867Z,86.63
2022-12-16T05:08:59.870Z,86.24
2022-12-16T05:09:59.846Z,86.21
2022-12-16T05:10:59.838Z,85.99
2022-12-16T05:11:59.826Z,86.52
2022-12-16T05:12:59.817Z,85.89
2022-12-16T05:13:59.815Z,86.24
2022-12-16T05:14:59.804Z,86.24
2022-12-16T05:15:59.880Z,86.03
2022-12-16T05:16:59.775Z,86.03
2022-12-16T05:17:59.779Z,86.46
2022-12-16T05:18:59.768Z,86.66
2022-12-16T05:19:59.745Z,86.56
2022-12-16T05:20:59.735Z,86.24
2022-12-16T05:21:59.721Z,86.56
2022-12-16T05:22:59.713Z,86.14
2022-12-16T05:23:59.712Z,85.99
2022-12-16T05:24:59.693Z,85.99
2022-12-16T05:25:59.685Z,85.93
2022-12-16T05:26:59.671Z,85.57
2022-12-16T05:27:59.662Z,85.57
2022-12-16T05:28:59.666Z,85.78
2022-12-16T05:29:59.639Z,85.14
2022-12-16T05:30:59.655Z,85.46
2022-12-16T05:31:59.619Z,85.78
2022-12-16T05:32:59.610Z,85.57
2022-12-16T05:33:59.626Z,85.14
2022-12-16T05:34:59.589Z,85.57
2022-12-16T05:35:59.577Z,85.25
2022-12-16T05:36:59.569Z,85.14
2022-12-16T05:37:59.556Z,85.11
2022-12-16T05:38:59.560Z,85.21
2022-12-16T05:39:59.536Z,85.53
2022-12-16T05:40:59.527Z,84.79
2022-12-16T05:41:59.518Z,84.58
2022-12-16T05:42:59.505Z,84.36
2022-12-16T05:43:59.506Z,84.75
2022-12-16T05:44:59.501Z,84.64
2022-12-16T05:45:59.544Z,84.12
2022-12-16T05:46:59.555Z,84.22
2022-12-16T05:47:59.456Z,84.33
2022-12-16T05:48:59.453Z,84.22
2022-12-16T05:49:59.452Z,83.69
2022-12-16T05:50:59.427Z,83.48
2022-12-16T05:51:59.415Z,83.76
2022-12-16T05:52:59.404Z,83.55
2022-12-16T05:53:59.402Z,83.37
2022-12-16T05:54:59.384Z,83.17
2022-12-16T05:55:59.370Z,83.34
2022-12-16T05:56:59.362Z,82.92
2022-12-16T05:57:59.351Z,82.92
2022-12-16T05:58:59.351Z,83.02
2022-12-16T05:59:59.332Z,83.02
2022-12-16T06:00:59.321Z,82.60
2022-12-16T06:01:59.443Z,82.28
2022-12-16T06:02:59.450Z,82.28
2022-12-16T06:03:59.424Z,82.17
2022-12-16T06:04:59.284Z,82.07
2022-12-16T06:05:59.283Z,82.14
2022-12-16T06:06:59.260Z,82.17
2022-12-16T06:07:59.247Z,81.96
2022-12-16T06:08:59.247Z,82.07
2022-12-16T06:09:59.225Z,82.03
2022-12-16T06:10:59.218Z,82.03
2022-12-16T06:11:59.206Z,82.03
2022-12-16T06:12:59.197Z,81.82
2022-12-16T06:13:59.199Z,82.07
2022-12-16T06:14:59.179Z,82.17
2022-12-16T06:16:03.730Z,81.50
2022-12-16T06:17:00.156Z,82.24
2022-12-16T06:17:59.144Z,82.14
2022-12-16T06:18:59.147Z,81.61
2022-12-16T06:19:59.123Z,81.82
2022-12-16T06:20:59.115Z,81.93
2022-12-16T06:21:59.124Z,81.82
2022-12-16T06:22:59.093Z,81.71
2022-12-16T06:23:59.103Z,81.68
2022-12-16T06:24:59.075Z,81.50
2022-12-16T06:25:59.066Z,81.71
2022-12-16T06:26:59.053Z,81.50
2022-12-16T06:27:59.040Z,81.82
2022-12-16T06:28:59.030Z,81.68
2022-12-16T06:29:59.031Z,82.03
2022-12-16T06:30:59.012Z,81.93
2022-12-16T06:31:59.020Z,81.93
2022-12-16T06:32:58.991Z,81.99
2022-12-16T06:33:58.980Z,81.89
2022-12-16T06:34:58.987Z,81.71
2022-12-16T06:35:58.960Z,81.89
2022-12-16T06:36:58.950Z,82.10
2022-12-16T06:37:58.956Z,82.35
2022-12-16T06:38:58.932Z,82.10
2022-12-16T06:39:58.925Z,82.42
2022-12-16T06:40:58.907Z,81.99
2022-12-16T06:41:58.899Z,82.31
2022-12-16T06:42:58.889Z,82.63
2022-12-16T06:43:58.875Z,82.56
2022-12-16T06:44:58.879Z,82.42
2022-12-16T06:45:58.927Z,82.31
2022-12-16T06:46:58.901Z,82.42
2022-12-16T06:47:58.835Z,82.42
2022-12-16T06:48:58.826Z,82.42
2022-12-16T06:49:58.824Z,82.53
2022-12-16T06:50:58.806Z,82.53
2022-12-16T06:51:58.793Z,83.26
2022-12-16T06:52:58.785Z,82.63
2022-12-16T06:53:58.789Z,82.63
2022-12-16T06:54:58.778Z,82.21
2022-12-16T06:55:59.658Z,82.31
2022-12-16T06:56:58.745Z,82.31
2022-12-16T06:57:59.255Z,82.73
2022-12-16T06:58:58.725Z,83.26
2022-12-16T06:59:58.721Z,83.05
2022-12-16T07:00:58.790Z,83.15
2022-12-16T07:01:58.804Z,83.15
2022-12-16T07:02:58.815Z,83.05
2022-12-16T07:03:58.671Z,83.15
2022-12-16T07:04:58.673Z,83.05
2022-12-16T07:05:58.652Z,83.15
2022-12-16T07:06:58.643Z,83.01
2022-12-16T07:07:58.631Z,83.01
2022-12-16T07:08:58.622Z,83.15
2022-12-16T07:09:58.694Z,83.05
2022-12-16T07:11:12.254Z,83.05
2022-12-16T07:11:59.592Z,82.98
2022-12-16T07:12:58.581Z,83.20
2022-12-16T07:13:58.570Z,83.20
2022-12-16T07:14:58.574Z,83.09
2022-12-16T07:15:58.632Z,82.98
2022-12-16T07:16:58.586Z,82.98
2022-12-16T07:17:58.532Z,83.09
2022-12-16T07:18:58.520Z,83.51
2022-12-16T07:19:58.518Z,83.83
2022-12-16T07:20:58.501Z,83.51
2022-12-16T07:21:58.490Z,83.79
2022-12-16T07:23:05.628Z,83.62
2022-12-16T07:23:59.465Z,83.69
2022-12-16T07:24:58.471Z,83.62
2022-12-16T07:25:58.464Z,83.05
2022-12-16T07:26:58.470Z,82.98
2022-12-16T07:27:58.427Z,83.05
2022-12-16T07:28:58.418Z,81.99
2022-12-16T07:29:58.416Z,81.99
2022-12-16T07:30:58.396Z,82.24
2022-12-16T07:31:58.449Z,81.82
2022-12-16T07:32:58.379Z,81.68
2022-12-16T07:33:58.365Z,81.78
2022-12-16T07:34:58.366Z,81.68
2022-12-16T07:35:58.346Z,81.57
2022-12-16T07:36:58.345Z,81.85
2022-12-16T07:37:58.323Z,81.89
2022-12-16T07:38:58.319Z,81.64
2022-12-16T07:39:58.315Z,81.74
2022-12-16T07:40:58.314Z,81.85
2022-12-16T07:41:58.303Z,81.74
2022-12-16T07:42:58.274Z,81.74
2022-12-16T07:43:58.272Z,82.06
2022-12-16T07:44:58.275Z,82.13
2022-12-16T07:45:58.360Z,81.92
2022-12-16T07:46:58.235Z,81.92
2022-12-16T07:47:58.223Z,81.71
2022-12-16T07:48:58.213Z,81.60
2022-12-16T07:49:58.260Z,81.50
2022-12-16T07:50:58.196Z,81.50
2022-12-16T07:51:58.183Z,81.50
2022-12-16T07:52:58.173Z,81.39
2022-12-16T07:53:58.164Z,81.60
2022-12-16T07:54:58.166Z,81.15
2022-12-16T07:55:58.140Z,80.97
2022-12-16T07:56:58.132Z,80.87
2022-12-16T07:57:58.184Z,80.87
2022-12-16T07:58:58.111Z,81.04
2022-12-16T07:59:58.106Z,81.35
2022-12-16T08:00:58.168Z,80.62
2022-12-16T08:01:58.274Z,80.83
2022-12-16T08:02:58.288Z,80.09
2022-12-16T08:03:58.099Z,79.88
2022-12-16T08:04:58.059Z,79.60
2022-12-16T08:05:58.040Z,79.81
2022-12-16T08:06:58.027Z,80.44
2022-12-16T08:07:58.016Z,80.87
2022-12-16T08:08:58.006Z,81.39
2022-12-16T08:09:58.002Z,81.25
2022-12-16T08:10:57.989Z,80.93
2022-12-16T08:11:57.973Z,81.01
2022-12-16T08:12:57.964Z,80.90
2022-12-16T08:13:57.969Z,81.18
2022-12-16T08:14:57.958Z,81.28
2022-12-16T08:15:57.933Z,80.62
2022-12-16T08:16:58.008Z,79.46
2022-12-16T08:17:57.913Z,79.52
2022-12-16T08:18:57.902Z,79.32
2022-12-16T08:19:57.893Z,78.16
2022-12-16T08:20:57.892Z,77.31
2022-12-16T08:21:57.889Z,77.07
2022-12-16T08:22:57.860Z,76.36
2022-12-16T08:23:57.850Z,76.23
2022-12-16T08:24:57.837Z,76.23
2022-12-16T08:25:58.479Z,76.23
2022-12-16T08:26:57.818Z,76.15
2022-12-16T08:27:57.817Z,76.23
2022-12-16T08:29:05.561Z,76.33
2022-12-16T08:29:58.798Z,76.33
2022-12-16T08:30:57.840Z,76.82
2022-12-16T08:31:57.765Z,75.98
2022-12-16T08:33:01.871Z,75.45
2022-12-16T08:33:58.774Z,75.56
2022-12-16T08:34:57.735Z,75.45
2022-12-16T08:35:57.735Z,75.35
2022-12-16T08:36:57.713Z,75.56
2022-12-16T08:37:57.699Z,75.45
2022-12-16T08:38:57.704Z,75.77
2022-12-16T08:40:58.679Z,75.98
2022-12-16T08:41:57.660Z,75.67
2022-12-16T08:42:57.649Z,75.52
2022-12-16T08:43:57.638Z,75.42
2022-12-16T08:44:57.630Z,75.42
2022-12-16T08:45:57.693Z,75.31
2022-12-16T08:46:57.608Z,74.86
2022-12-16T08:47:57.596Z,74.90
2022-12-16T08:48:57.585Z,73.71
2022-12-16T08:49:59.872Z,73.68
2022-12-16T08:50:57.598Z,72.80
2022-12-16T08:51:57.554Z,71.83
2022-12-16T08:52:57.547Z,71.41
2022-12-16T08:53:57.533Z,70.11
2022-12-16T08:54:57.518Z,70.53
2022-12-16T08:55:57.523Z,70.40
2022-12-16T08:56:57.502Z,69.21
2022-12-16T08:57:57.490Z,68.00
2022-12-16T08:58:57.479Z,67.68
2022-12-16T08:59:57.469Z,66.43
2022-12-16T09:01:00.496Z,66.74
2022-12-16T09:01:58.628Z,67.06
2022-12-16T09:02:57.710Z,66.43
2022-12-16T09:03:57.509Z,66.50
2022-12-16T09:04:57.414Z,66.78
2022-12-16T09:05:57.417Z,66.47
2022-12-16T09:06:57.393Z,66.47
2022-12-16T09:07:57.386Z,65.68
2022-12-16T09:08:57.378Z,64.40
2022-12-16T09:09:57.362Z,64.21
2022-12-16T09:10:57.363Z,62.30
2022-12-16T09:11:57.344Z,62.17
2022-12-16T09:12:57.333Z,61.44
2022-12-16T09:13:57.319Z,61.02
2022-12-16T09:14:57.317Z,60.50
2022-12-16T09:15:57.362Z,60.11
2022-12-16T09:16:57.286Z,60.77
2022-12-16T09:17:57.300Z,62.18
2022-12-16T09:18:57.263Z,63.35
2022-12-16T09:19:57.253Z,64.50
2022-12-16T09:20:57.251Z,64.37
2022-12-16T09:21:57.232Z,63.35
2022-12-16T09:22:57.217Z,64.01
2022-12-16T09:23:57.215Z,64.87
2022-12-16T09:24:57.198Z,65.61
2022-12-16T09:25:57.241Z,66.03
2022-12-16T09:26:57.234Z,65.84
2022-12-16T09:27:57.167Z,66.40
2022-12-16T09:28:57.158Z,67.50
2022-12-16T09:29:57.144Z,68.24
2022-12-16T09:30:57.250Z,69.29
2022-12-16T09:31:57.125Z,69.18
2022-12-16T09:32:57.111Z,69.70
2022-12-16T09:33:57.240Z,69.53
2022-12-16T09:34:57.089Z,69.95
2022-12-16T09:35:57.093Z,69.95
2022-12-16T09:36:57.067Z,70.26
2022-12-16T09:37:57.061Z,70.99
2022-12-16T09:38:57.044Z,69.95
2022-12-16T09:39:57.038Z,70.08
2022-12-16T09:40:57.044Z,70.05
2022-12-16T09:41:57.015Z,70.99
2022-12-16T09:42:57.011Z,71.20
2022-12-16T09:43:56.996Z,71.62
2022-12-16T09:44:56.980Z,71.62
2022-12-16T09:45:57.083Z,71.31
2022-12-16T09:46:57.088Z,69.53
2022-12-16T09:47:56.950Z,70.68
2022-12-16T09:48:56.938Z,71.76
2022-12-16T09:49:56.950Z,72.39
2022-12-16T09:50:56.925Z,72.18
2022-12-16T09:51:56.908Z,72.07
2022-12-16T09:52:56.894Z,72.28
2022-12-16T09:53:56.885Z,72.25
2022-12-16T09:54:56.872Z,71.86
2022-12-16T09:55:56.878Z,71.55
2022-12-16T09:56:56.855Z,71.76
2022-12-16T09:57:56.851Z,71.86
2022-12-16T09:58:56.831Z,72.14
2022-12-16T09:59:56.821Z,72.35
2022-12-16T10:00:56.826Z,72.46
2022-12-16T10:01:56.906Z,72.04
2022-12-16T10:03:00.438Z,72.35
2022-12-16T10:03:57.888Z,72.25
2022-12-16T10:04:56.775Z,71.83
2022-12-16T10:05:56.780Z,71.41
2022-12-16T10:06:56.744Z,70.23
2022-12-16T10:07:56.737Z,70.37
2022-12-16T10:08:56.724Z,70.78
2022-12-16T10:09:56.716Z,70.89
2022-12-16T10:10:56.712Z,71.73
2022-12-16T10:11:56.693Z,71.56
2022-12-16T10:12:56.681Z,69.99
2022-12-16T10:13:56.672Z,70.09
2022-12-16T10:14:56.658Z,70.30
2022-12-16T10:15:56.688Z,70.30
2022-12-16T10:16:56.639Z,70.09
2022-12-16T10:17:56.628Z,69.99
2022-12-16T10:18:56.649Z,70.30
2022-12-16T10:19:56.607Z,70.40
2022-12-16T10:20:56.607Z,70.09
2022-12-16T10:21:56.642Z,70.20
2022-12-16T10:22:56.573Z,70.20
2022-12-16T10:23:56.563Z,70.30
2022-12-16T10:24:56.551Z,70.30
2022-12-16T10:25:56.553Z,70.20
2022-12-16T10:26:56.531Z,70.83
2022-12-16T10:27:56.520Z,71.56
2022-12-16T10:28:56.509Z,71.48
2022-12-16T10:29:56.501Z,71.38
2022-12-16T10:30:56.517Z,71.48
2022-12-16T10:31:56.480Z,71.66
2022-12-16T10:32:56.469Z,71.48
2022-12-16T10:33:56.456Z,71.69
2022-12-16T10:34:56.465Z,71.97
2022-12-16T10:35:56.447Z,71.66
2022-12-16T10:36:56.422Z,72.08
2022-12-16T10:37:56.498Z,71.97
2022-12-16T10:38:56.401Z,71.34
2022-12-16T10:39:56.394Z,71.66
2022-12-16T10:40:56.394Z,70.83
2022-12-16T10:41:56.369Z,71.03
2022-12-16T10:42:56.359Z,71.14
2022-12-16T10:43:56.349Z,71.66
2022-12-16T10:44:56.338Z,71.66
2022-12-16T10:45:56.397Z,70.93
2022-12-16T10:46:56.398Z,71.24
2022-12-16T10:47:56.374Z,71.14
2022-12-16T10:48:57.257Z,71.14
2022-12-16T10:49:56.391Z,71.03
2022-12-16T10:50:56.285Z,70.93
2022-12-16T10:51:56.265Z,71.14
2022-12-16T10:52:56.270Z,71.56
2022-12-16T10:53:56.287Z,71.77
2022-12-16T10:54:56.235Z,71.77
2022-12-16T10:55:56.233Z,71.97
2022-12-16T10:56:56.230Z,72.60
2022-12-16T10:57:56.202Z,72.60
2022-12-16T10:58:56.187Z,72.99
2022-12-16T10:59:56.177Z,73.51
2022-12-16T11:00:56.178Z,73.61
2022-12-16T11:01:56.329Z,74.35
2022-12-16T11:02:56.389Z,73.72
2022-12-16T11:03:56.223Z,73.72
2022-12-16T11:04:56.363Z,72.78
2022-12-16T11:05:56.180Z,72.25
2022-12-16T11:06:56.106Z,72.88
2022-12-16T11:07:56.098Z,72.67
2022-12-16T11:08:56.078Z,73.19
2022-12-16T11:09:56.109Z,73.61
2022-12-16T11:10:56.340Z,73.09
2022-12-16T11:11:56.053Z,73.61
2022-12-16T11:12:56.036Z,73.27
2022-12-16T11:13:56.026Z,72.64
2022-12-16T11:15:57.023Z,72.67
2022-12-16T11:16:56.009Z,72.53
2022-12-16T11:17:56.143Z,72.96
2022-12-16T11:18:55.972Z,73.47
2022-12-16T11:19:55.961Z,73.27
2022-12-16T11:20:55.965Z,72.53
2022-12-16T11:21:55.963Z,72.43
2022-12-16T11:22:55.930Z,72.53
2022-12-16T11:23:55.937Z,73.06
2022-12-16T11:24:55.905Z,72.64
2022-12-16T11:25:55.942Z,72.50
2022-12-16T11:26:55.885Z,72.61
2022-12-16T11:27:55.875Z,72.30
2022-12-16T11:28:55.864Z,71.67
2022-12-16T11:29:55.857Z,71.88
2022-12-16T11:30:55.913Z,72.08
2022-12-16T11:31:59.634Z,72.19
2022-12-16T11:32:56.818Z,72.30
2022-12-16T11:33:55.817Z,71.88
2022-12-16T11:34:55.799Z,71.98
2022-12-16T11:35:55.805Z,72.19
2022-12-16T11:36:55.778Z,72.19
2022-12-16T11:37:55.771Z,72.08
2022-12-16T11:38:55.769Z,71.67
2022-12-16T11:39:55.798Z,71.46
2022-12-16T11:40:55.755Z,71.25
2022-12-16T11:41:55.742Z,71.36
2022-12-16T11:42:55.756Z,71.04
2022-12-16T11:43:55.705Z,71.46
2022-12-16T11:44:55.690Z,71.36
2022-12-16T11:45:55.693Z,71.67
2022-12-16T11:46:55.792Z,71.67
2022-12-16T11:47:55.660Z,71.67
2022-12-16T11:48:55.650Z,71.36
2022-12-16T11:49:55.638Z,71.77
2022-12-16T11:50:55.626Z,71.46
2022-12-16T11:52:08.243Z,71.56
2022-12-16T11:52:56.609Z,71.36
2022-12-16T11:53:55.594Z,71.56
2022-12-16T11:54:55.586Z,71.77
2022-12-16T11:56:05.912Z,71.46
2022-12-16T11:56:56.628Z,71.36
2022-12-16T11:57:55.606Z,71.67
2022-12-16T11:58:55.539Z,71.77
2022-12-16T11:59:55.540Z,71.77
2022-12-16T12:00:55.519Z,71.67
2022-12-16T12:01:55.874Z,71.67
2022-12-16T12:02:55.829Z,72.40
2022-12-16T12:03:55.608Z,71.98
2022-12-16T12:04:55.477Z,72.50
2022-12-16T12:05:55.465Z,72.40
2022-12-16T12:06:55.465Z,72.19
2022-12-16T12:07:55.648Z,72.50
2022-12-16T12:08:55.434Z,72.30
2022-12-16T12:09:55.423Z,72.40
2022-12-16T12:10:55.459Z,72.50
2022-12-16T12:11:55.596Z,71.77
2022-12-16T12:12:55.390Z,71.67
2022-12-16T12:13:55.400Z,71.77
2022-12-16T12:14:55.369Z,71.67
2022-12-16T12:15:55.384Z,71.67
2022-12-16T12:16:55.358Z,71.98
2022-12-16T12:17:55.654Z,72.30
2022-12-16T12:18:55.327Z,72.19
2022-12-16T12:19:55.315Z,72.26
2022-12-16T12:20:55.309Z,72.78
2022-12-16T12:21:55.309Z,72.89
2022-12-16T12:22:55.282Z,72.36
2022-12-16T12:23:55.306Z,72.47
2022-12-16T12:24:58.044Z,72.50
2022-12-16T12:25:55.253Z,72.58
2022-12-16T12:26:55.254Z,72.19
2022-12-16T12:27:55.230Z,72.26
2022-12-16T12:28:55.218Z,72.50
2022-12-16T12:29:55.229Z,72.58
2022-12-16T12:30:55.197Z,73.24
2022-12-16T12:31:55.276Z,73.10
2022-12-16T12:32:55.173Z,73.30
2022-12-16T12:33:55.175Z,72.58
2022-12-16T12:34:55.183Z,72.89
2022-12-16T12:35:55.559Z,72.68
2022-12-16T12:36:55.160Z,73.52
2022-12-16T12:37:55.121Z,73.20
2022-12-16T12:38:55.111Z,73.10
2022-12-16T12:39:55.102Z,73.20
2022-12-16T12:40:55.160Z,73.20
2022-12-16T12:41:55.192Z,72.99
2022-12-16T12:42:55.124Z,73.24
2022-12-16T12:43:55.057Z,73.34
2022-12-16T12:44:55.049Z,73.93
2022-12-16T12:45:55.199Z,73.72
2022-12-16T12:46:55.180Z,73.41
2022-12-16T12:47:55.023Z,73.52
2022-12-16T12:48:57.557Z,73.41
2022-12-16T12:49:54.992Z,73.52
2022-12-16T12:50:54.983Z,72.68
2022-12-16T12:51:54.997Z,74.14
2022-12-16T12:52:54.958Z,72.89
2022-12-16T12:53:54.991Z,72.89
2022-12-16T12:54:54.959Z,74.14
2022-12-16T12:55:54.928Z,72.99